Time;durP1;ratioP1;P1;durP2;ratioP2;P2;SDS_P1;SDS_P2;PMS_P1;PMS_P2;Temp;Humidity;BMP_temperature;BMP_pressure;BME280_temperature;BME280_humidity;BME280_pressure;Samples;Min_cycle;Max_cycle;Signal;HPM_P1;HPM_P2
2021/01/22 00:00:55;;;;;;;10.97;9.87;;;;;21.90;97336.00;;;;2087726;28;20208;-63
2021/01/22 00:01:56;;;;;;;11.00;9.90;;;;;21.90;97334.00;;;;2087670;28;20254;-62
2021/01/22 00:02:57;;;;;;;10.10;9.07;;;;;21.90;97326.00;;;;2087240;28;20284;-63
2021/01/22 00:03:57;;;;;;;9.40;8.47;;;;;21.90;97324.00;;;;2087545;28;20687;-63
2021/01/22 00:04:57;;;;;;;9.57;8.43;;;;;21.90;97323.00;;;;2086836;28;20224;-62
2021/01/22 00:05:58;;;;;;;9.80;8.80;;;;;21.90;97323.00;;;;2087751;28;20236;-63
2021/01/22 00:06:59;;;;;;;9.73;8.73;;;;;21.90;97322.00;;;;2077268;28;20486;-63
2021/01/22 00:07:59;;;;;;;9.93;8.77;;;;;21.80;97324.00;;;;2087319;28;20266;-62
2021/01/22 00:08:59;;;;;;;10.10;8.23;;;;;21.90;97322.00;;;;2087759;28;20217;-63
2021/01/22 00:10:00;;;;;;;12.10;8.87;;;;;21.80;97312.00;;;;2087834;28;20233;-62
2021/01/22 00:11:00;;;;;;;8.90;7.83;;;;;21.80;97313.00;;;;2087725;28;20213;-63
2021/01/22 00:12:00;;;;;;;9.70;7.93;;;;;21.80;97304.00;;;;2078724;28;20222;-62
2021/01/22 00:13:00;;;;;;;8.77;7.87;;;;;21.80;97312.00;;;;2078486;28;20300;-62
2021/01/22 00:14:01;;;;;;;7.63;6.83;;;;;21.80;97289.00;;;;2087743;28;20225;-62
2021/01/22 00:15:01;;;;;;;8.50;7.20;;;;;21.80;97316.00;;;;2086758;28;20676;-63
2021/01/22 00:16:02;;;;;;;7.97;7.17;;;;;21.80;97308.00;;;;2087014;28;20801;-63
2021/01/22 00:17:03;;;;;;;10.20;7.47;;;;;21.80;97306.00;;;;2087401;28;20221;-63
2021/01/22 00:18:04;;;;;;;8.30;7.50;;;;;21.80;97309.00;;;;2087435;28;20205;-64
2021/01/22 00:19:04;;;;;;;7.83;7.03;;;;;21.70;97314.00;;;;2087723;28;20278;-63
2021/01/22 00:20:05;;;;;;;8.00;7.20;;;;;21.70;97304.00;;;;2087754;28;20221;-62
2021/01/22 00:21:05;;;;;;;8.03;7.23;;;;;21.70;97298.00;;;;2087450;28;20220;-63
2021/01/22 00:22:06;;;;;;;8.10;7.30;;;;;21.70;97294.00;;;;2087523;28;20448;-63
2021/01/22 00:23:06;;;;;;;8.03;7.00;;;;;21.70;97303.00;;;;2087220;28;20219;-63
2021/01/22 00:24:07;;;;;;;8.10;7.13;;;;;21.70;97292.00;;;;2087582;28;20210;-63
2021/01/22 00:25:07;;;;;;;6.87;6.17;;;;;21.70;97295.00;;;;2087602;28;20212;-62
2021/01/22 00:26:08;;;;;;;7.07;6.33;;;;;21.70;97296.00;;;;2087427;28;20263;-62
2021/01/22 00:27:08;;;;;;;8.90;7.60;;;;;21.70;97293.00;;;;2087665;28;20443;-62
2021/01/22 00:28:08;;;;;;;7.73;6.93;;;;;21.70;97290.00;;;;2086467;28;20201;-62
2021/01/22 00:29:09;;;;;;;6.73;6.13;;;;;21.70;97293.00;;;;2087594;28;20232;-62
2021/01/22 00:30:10;;;;;;;6.80;6.17;;;;;21.70;97288.00;;;;2087646;28;20209;-63
2021/01/22 00:31:11;;;;;;;7.13;6.07;;;;;21.70;97289.00;;;;2087609;28;20205;-62
2021/01/22 00:32:11;;;;;;;7.90;6.00;;;;;21.70;97301.00;;;;2086825;28;20221;-62
2021/01/22 00:33:11;;;;;;;5.63;5.10;;;;;21.70;97288.00;;;;2086485;28;20213;-63
2021/01/22 00:34:12;;;;;;;6.50;5.90;;;;;21.70;97299.00;;;;2087317;28;20216;-63
2021/01/22 00:35:12;;;;;;;5.57;4.97;;;;;21.70;97279.00;;;;2087369;28;20216;-62
2021/01/22 00:36:12;;;;;;;6.67;5.93;;;;;21.70;97287.00;;;;2078712;28;20202;-62
2021/01/22 00:37:13;;;;;;;5.73;5.23;;;;;21.70;97285.00;;;;2078689;28;20225;-63
2021/01/22 00:38:13;;;;;;;5.30;4.80;;;;;21.70;97274.00;;;;2087562;28;20267;-61
2021/01/22 00:39:14;;;;;;;5.50;4.90;;;;;21.60;97282.00;;;;2087577;28;20227;-62
2021/01/22 00:40:14;;;;;;;5.83;5.10;;;;;21.60;97284.00;;;;2087652;28;20213;-63
2021/01/22 00:41:15;;;;;;;6.87;5.50;;;;;21.60;97284.00;;;;2087624;28;20209;-62
2021/01/22 00:42:15;;;;;;;6.00;5.23;;;;;21.60;97279.00;;;;2087464;28;20703;-62
2021/01/22 00:43:15;;;;;;;4.60;4.00;;;;;21.60;97274.00;;;;2087091;28;20202;-62
2021/01/22 00:44:16;;;;;;;6.27;5.43;;;;;21.60;97278.00;;;;2087537;28;20217;-62
2021/01/22 00:45:16;;;;;;;5.60;4.60;;;;;21.60;97273.00;;;;2087534;28;20699;-62
2021/01/22 00:46:16;;;;;;;6.23;5.17;;;;;21.60;97292.00;;;;2087627;28;20232;-62
2021/01/22 00:47:17;;;;;;;5.90;4.70;;;;;21.60;97287.00;;;;2087671;28;20212;-62
2021/01/22 00:48:17;;;;;;;5.30;4.67;;;;;21.60;97292.00;;;;2087434;28;20688;-62
2021/01/22 00:49:17;;;;;;;4.67;4.17;;;;;21.60;97283.00;;;;2087685;28;20699;-63
2021/01/22 00:50:18;;;;;;;5.10;4.30;;;;;21.50;97276.00;;;;2086826;28;20645;-62
2021/01/22 00:51:18;;;;;;;4.83;4.43;;;;;21.60;97286.00;;;;2079363;28;20223;-63
2021/01/22 00:52:18;;;;;;;6.10;4.90;;;;;21.60;97280.00;;;;2087387;28;20217;-62
2021/01/22 00:53:19;;;;;;;4.80;4.17;;;;;21.60;97278.00;;;;2087010;28;20259;-62
2021/01/22 00:54:19;;;;;;;4.90;4.23;;;;;21.50;97289.00;;;;2087490;28;20224;-62
2021/01/22 00:55:19;;;;;;;4.40;4.00;;;;;21.50;97285.00;;;;2087362;28;20225;-62
2021/01/22 00:56:20;;;;;;;4.90;4.10;;;;;21.50;97288.00;;;;2087705;28;20306;-62
2021/01/22 00:57:20;;;;;;;4.70;4.20;;;;;21.50;97277.00;;;;2087644;28;20224;-63
2021/01/22 00:58:20;;;;;;;5.03;4.27;;;;;21.50;97272.00;;;;2087623;28;20220;-62
2021/01/22 00:59:21;;;;;;;4.67;4.03;;;;;21.50;97271.00;;;;2086846;28;20263;-63
2021/01/22 01:00:21;;;;;;;4.60;4.10;;;;;21.50;97272.00;;;;2088263;28;20220;-62
2021/01/22 01:01:21;;;;;;;4.03;3.63;;;;;21.50;97264.00;;;;2089228;28;20217;-61
2021/01/22 01:02:22;;;;;;;3.70;3.40;;;;;21.50;97264.00;;;;2089012;28;20229;-62
2021/01/22 01:03:22;;;;;;;4.23;3.50;;;;;21.50;97262.00;;;;2088544;28;20594;-62
2021/01/22 01:04:22;;;;;;;4.00;3.27;;;;;21.50;97260.00;;;;2088667;28;20355;-62
2021/01/22 01:05:23;;;;;;;3.90;3.50;;;;;21.50;97258.00;;;;2089110;28;20222;-63
2021/01/22 01:06:23;;;;;;;4.10;3.60;;;;;21.50;97256.00;;;;2089048;28;20217;-62
2021/01/22 01:07:23;;;;;;;3.03;2.73;;;;;21.50;97259.00;;;;2089222;28;20228;-62
2021/01/22 01:08:24;;;;;;;3.30;3.00;;;;;21.50;97248.00;;;;2089197;28;20216;-62
2021/01/22 01:09:24;;;;;;;4.10;3.70;;;;;21.50;97267.00;;;;2089160;28;20650;-62
2021/01/22 01:10:24;;;;;;;3.83;3.13;;;;;21.50;97267.00;;;;2089118;28;20230;-62
2021/01/22 01:11:25;;;;;;;4.10;3.43;;;;;21.50;97257.00;;;;2089120;28;20217;-63
2021/01/22 01:12:25;;;;;;;3.80;3.40;;;;;21.50;97259.00;;;;2089075;28;20235;-62
2021/01/22 01:13:26;;;;;;;4.57;3.40;;;;;21.40;97258.00;;;;2088687;28;20224;-63
2021/01/22 01:14:26;;;;;;;3.40;3.10;;;;;21.50;97260.00;;;;2089043;28;20231;-62
2021/01/22 01:15:26;;;;;;;3.57;3.07;;;;;21.50;97249.00;;;;2088818;28;20241;-62
2021/01/22 01:16:27;;;;;;;3.03;2.73;;;;;21.50;97258.00;;;;2089191;28;20307;-62
2021/01/22 01:17:27;;;;;;;3.33;2.70;;;;;21.40;97243.00;;;;2089189;28;20578;-63
2021/01/22 01:18:27;;;;;;;3.40;3.10;;;;;21.40;97258.00;;;;2088913;28;20219;-62
2021/01/22 01:19:28;;;;;;;3.60;3.07;;;;;21.50;97252.00;;;;2083517;28;20213;-63
2021/01/22 01:20:28;;;;;;;3.07;2.80;;;;;21.40;97245.00;;;;2080210;28;20255;-63
2021/01/22 01:21:29;;;;;;;3.33;2.77;;;;;21.40;97252.00;;;;2080367;28;20635;-63
2021/01/22 01:22:29;;;;;;;2.50;2.30;;;;;21.40;97259.00;;;;2088669;28;20279;-62
2021/01/22 01:23:29;;;;;;;4.20;2.90;;;;;21.40;97263.00;;;;2088605;28;20223;-62
2021/01/22 01:24:29;;;;;;;3.03;2.73;;;;;21.40;97259.00;;;;2089043;28;20228;-62
2021/01/22 01:25:30;;;;;;;3.10;2.80;;;;;21.40;97255.00;;;;2089007;28;20236;-63
2021/01/22 01:26:30;;;;;;;3.03;2.50;;;;;21.40;97256.00;;;;2089126;28;20240;-62
2021/01/22 01:27:31;;;;;;;3.30;2.90;;;;;21.40;97241.00;;;;2089232;28;20224;-62
2021/01/22 01:28:31;;;;;;;3.50;2.90;;;;;21.40;97241.00;;;;2089108;28;20217;-62
2021/01/22 01:29:31;;;;;;;3.03;2.73;;;;;21.40;97240.00;;;;2088775;28;20221;-62
2021/01/22 01:30:32;;;;;;;3.87;2.80;;;;;21.40;97243.00;;;;2089010;28;20231;-61
2021/01/22 01:31:32;;;;;;;2.63;2.43;;;;;21.40;97242.00;;;;2089027;28;20278;-61
2021/01/22 01:32:32;;;;;;;2.90;2.60;;;;;21.40;97247.00;;;;2088690;28;20370;-62
2021/01/22 01:33:33;;;;;;;2.80;2.40;;;;;21.40;97232.00;;;;2088501;28;20213;-62
2021/01/22 01:34:33;;;;;;;2.87;2.47;;;;;21.40;97255.00;;;;2089111;28;20304;-62
2021/01/22 01:35:33;;;;;;;2.63;2.13;;;;;21.30;97246.00;;;;2088987;28;20225;-62
2021/01/22 01:36:34;;;;;;;3.70;2.80;;;;;21.40;97244.00;;;;2088821;28;20247;-62
2021/01/22 01:37:34;;;;;;;2.70;2.30;;;;;21.30;97246.00;;;;2088887;28;20649;-62
2021/01/22 01:38:34;;;;;;;2.67;2.30;;;;;21.30;97239.00;;;;2088918;28;20312;-62
2021/01/22 01:39:35;;;;;;;2.67;2.47;;;;;21.30;97242.00;;;;2089027;28;20250;-62
2021/01/22 01:40:35;;;;;;;2.33;2.13;;;;;21.30;97237.00;;;;2088962;28;20640;-62
2021/01/22 01:41:35;;;;;;;2.23;2.03;;;;;21.40;97239.00;;;;2088993;28;20630;-62
2021/01/22 01:42:36;;;;;;;4.00;2.10;;;;;21.30;97247.00;;;;2088872;28;20698;-62
2021/01/22 01:43:36;;;;;;;2.83;2.10;;;;;21.30;97245.00;;;;2087452;28;20676;-62
2021/01/22 01:44:36;;;;;;;2.13;1.70;;;;;21.30;97248.00;;;;2085904;28;20296;-62
2021/01/22 01:45:40;;;;;;;2.57;2.00;;;;;21.30;97246.00;;;;2088792;28;20217;-62
2021/01/22 01:46:40;;;;;;;2.30;1.90;;;;;21.30;97249.00;;;;2088936;28;20217;-63
2021/01/22 01:47:40;;;;;;;2.53;2.00;;;;;21.30;97254.00;;;;2088831;28;20686;-62
2021/01/22 01:48:41;;;;;;;3.23;2.07;;;;;21.30;97252.00;;;;2088900;28;20835;-62
2021/01/22 01:49:41;;;;;;;2.67;2.10;;;;;21.30;97249.00;;;;2075191;28;20735;-62
2021/01/22 01:50:41;;;;;;;2.37;2.00;;;;;21.30;97255.00;;;;2079925;28;20217;-62
2021/01/22 01:51:43;;;;;;;2.40;2.20;;;;;21.30;97246.00;;;;2075023;28;20221;-62
2021/01/22 01:52:43;;;;;;;2.83;2.20;;;;;21.30;97244.00;;;;2079262;28;20798;-62
2021/01/22 01:53:44;;;;;;;2.17;1.60;;;;;21.30;97247.00;;;;2088300;28;20223;-62
2021/01/22 01:54:44;;;;;;;2.97;2.13;;;;;21.30;97268.00;;;;2080039;28;20241;-62
2021/01/22 01:55:44;;;;;;;2.77;1.83;;;;;21.30;97263.00;;;;2079969;28;20211;-63
2021/01/22 01:56:45;;;;;;;2.57;1.77;;;;;21.30;97254.00;;;;2071934;28;20713;-62
2021/01/22 01:57:46;;;;;;;2.80;1.90;;;;;21.30;97275.00;;;;2071935;28;20246;-63
2021/01/22 01:58:46;;;;;;;2.20;2.00;;;;;21.30;97284.00;;;;2080167;28;20244;-63
2021/01/22 01:59:46;;;;;;;2.43;1.80;;;;;21.20;97287.00;;;;2080008;28;20220;-62
2021/01/22 02:00:47;;;;;;;2.10;1.90;;;;;21.30;97299.00;;;;2071560;28;20221;-62
2021/01/22 02:01:47;;;;;;;5.30;1.80;;;;;21.20;97353.00;;;;2079983;28;20840;-63
2021/01/22 02:02:48;;;;;;;3.30;2.37;;;;;21.20;97420.00;;;;2071525;28;20319;-62
2021/01/22 02:03:48;;;;;;;5.13;2.00;;;;;21.20;97391.00;;;;2079380;28;20280;-63
2021/01/22 02:04:49;;;;;;;3.17;1.83;;;;;21.20;97384.00;;;;2088384;28;20217;-63
2021/01/22 02:05:49;;;;;;;2.10;1.43;;;;;21.20;97397.00;;;;2088769;28;20217;-62
2021/01/22 02:06:50;;;;;;;2.07;1.50;;;;;21.20;97401.00;;;;2088662;28;20223;-63
2021/01/22 02:07:50;;;;;;;2.10;1.47;;;;;21.20;97408.00;;;;2078558;28;20216;-62
2021/01/22 02:08:50;;;;;;;2.03;1.40;;;;;21.20;97410.00;;;;2071526;28;20352;-63
2021/01/22 02:09:51;;;;;;;2.77;1.63;;;;;21.20;97434.00;;;;2071755;28;20655;-63
2021/01/22 02:10:51;;;;;;;2.00;1.40;;;;;21.20;97413.00;;;;2076321;28;20694;-63
2021/01/22 02:11:51;;;;;;;2.60;1.47;;;;;21.20;97418.00;;;;2070543;28;20915;-62
2021/01/22 02:12:52;;;;;;;2.27;1.40;;;;;21.20;97417.00;;;;2071292;28;20593;-63
2021/01/22 02:13:52;;;;;;;2.40;1.37;;;;;21.10;97442.00;;;;2079376;28;20591;-62
2021/01/22 02:14:53;;;;;;;1.67;1.30;;;;;21.20;97433.00;;;;2071570;28;20214;-63
2021/01/22 02:15:54;;;;;;;2.25;1.20;;;;;21.20;97431.00;;;;2071869;28;20214;-63
2021/01/22 02:16:54;;;;;;;2.00;1.33;;;;;21.20;97446.00;;;;2071391;28;20324;-62
2021/01/22 02:17:55;;;;;;;2.03;1.27;;;;;21.20;97453.00;;;;2071642;28;20219;-62
2021/01/22 02:18:56;;;;;;;1.50;1.40;;;;;21.10;97447.00;;;;2063448;28;20721;-63
2021/01/22 02:20:16;;;;;;;2.07;1.33;;;;;21.10;97452.00;;;;2063486;28;20214;-62
2021/01/22 02:21:28;;;;;;;2.25;1.33;;;;;21.10;97460.00;;;;2073421;28;20891;-62
2021/01/22 02:22:29;;;;;;;1.80;1.20;;;;;21.10;97463.00;;;;2074537;28;20226;-63
2021/01/22 02:23:31;;;;;;;1.00;0.90;;;;;21.10;97463.00;;;;2079363;28;20217;-63
2021/01/22 02:24:32;;;;;;;1.23;1.05;;;;;21.10;97477.00;;;;2063522;28;20708;-62
2021/01/22 02:25:34;;;;;;;1.87;1.10;;;;;21.10;97484.00;;;;2063588;28;20238;-63
2021/01/22 02:26:40;;;;;;;2.05;1.20;;;;;21.10;97490.00;;;;2070879;28;20230;-62
2021/01/22 02:27:40;;;;;;;1.35;1.05;;;;;21.10;97493.00;;;;2072102;28;20600;-62
2021/01/22 02:28:42;;;;;;;1.67;1.27;;;;;21.10;97497.00;;;;2079432;28;20235;-63
2021/01/22 02:29:42;;;;;;;1.38;1.00;;;;;21.10;97498.00;;;;2070926;28;20251;-62
2021/01/22 02:30:43;;;;;;;1.27;0.80;;;;;21.10;97500.00;;;;2062876;28;20222;-63
2021/01/22 02:31:44;;;;;;;1.03;0.80;;;;;21.10;97512.00;;;;2070885;28;20230;-63
2021/01/22 02:32:45;;;;;;;1.45;1.00;;;;;21.10;97505.00;;;;2071094;28;20485;-63
2021/01/22 02:33:45;;;;;;;1.10;0.90;;;;;21.10;97532.00;;;;2070520;28;20214;-62
2021/01/22 02:34:46;;;;;;;1.90;0.97;;;;;21.10;97525.00;;;;2071104;28;20446;-62
2021/01/22 02:35:49;;;;;;;1.30;0.80;;;;;21.10;97534.00;;;;2074313;28;20221;-62
2021/01/22 02:36:49;;;;;;;0.90;0.70;;;;;21.10;97531.00;;;;2067362;28;20301;-63
2021/01/22 02:37:49;;;;;;;1.07;0.80;;;;;21.10;97553.00;;;;2070872;28;20628;-63
2021/01/22 02:38:50;;;;;;;1.30;1.10;;;;;21.10;97557.00;;;;2075208;28;20220;-63
2021/01/22 02:39:51;;;;;;;1.43;0.97;;;;;21.10;97562.00;;;;2067743;28;20651;-63
2021/01/22 02:40:56;;;;;;;1.10;1.00;;;;;21.10;97559.00;;;;2071376;28;20681;-63
2021/01/22 02:41:56;;;;;;;1.08;0.95;;;;;21.10;97570.00;;;;2088390;28;20212;-63
2021/01/22 02:42:56;;;;;;;1.40;0.93;;;;;21.10;97587.00;;;;2078857;28;20217;-62
2021/01/22 02:43:57;;;;;;;1.00;0.73;;;;;21.10;97593.00;;;;2071442;28;20283;-63
2021/01/22 02:44:57;;;;;;;0.80;0.80;;;;;21.10;97601.00;;;;2079497;28;20225;-63
2021/01/22 02:45:57;;;;;;;1.10;0.73;;;;;21.00;97615.00;;;;2071386;28;20266;-63
2021/01/22 02:46:58;;;;;;;1.37;0.93;;;;;21.00;97620.00;;;;2063395;28;20710;-63
2021/01/22 02:47:59;;;;;;;1.40;0.90;;;;;21.00;97623.00;;;;2063543;28;20215;-63
2021/01/22 02:48:59;;;;;;;1.30;1.00;;;;;21.00;97617.00;;;;2071432;28;20202;-62
2021/01/22 02:49:59;;;;;;;0.87;0.80;;;;;21.00;97640.00;;;;2073784;28;20330;-63
2021/01/22 02:51:00;;;;;;;0.90;0.90;;;;;21.00;97640.00;;;;2076104;28;20597;-62
2021/01/22 02:52:00;;;;;;;0.80;0.70;;;;;21.00;97650.00;;;;2071118;28;20221;-63
2021/01/22 02:53:04;;;;;;;1.10;0.60;;;;;21.00;97651.00;;;;2070650;28;20298;-62
2021/01/22 02:54:04;;;;;;;1.45;0.90;;;;;21.00;97647.00;;;;2088451;28;20300;-63
2021/01/22 02:55:06;;;;;;;0.70;0.70;;;;;21.00;97648.00;;;;2088366;28;20281;-62
2021/01/22 02:56:11;;;;;;;1.00;0.73;;;;;21.00;97645.00;;;;2088539;28;20208;-63
2021/01/22 02:57:46;;;;;;;1.05;0.77;;;;;21.00;97657.00;;;;2078791;28;20596;-62
2021/01/22 02:58:51;;;;;;;0.93;0.82;;;;;21.00;97658.00;;;;2075024;28;20220;-62
2021/01/22 03:00:04;;;;;;;0.70;0.70;;;;;21.00;97668.00;;;;2054003;28;20250;-63
2021/01/22 03:01:07;;;;;;;0.93;0.70;;;;;21.00;97674.00;;;;2065830;28;20210;-63
2021/01/22 03:02:42;;;;;;;1.00;0.80;;;;;21.00;97674.00;;;;2071536;28;20206;-62
2021/01/22 03:04:00;;;;;;;1.08;0.73;;;;;21.00;97679.00;;;;2057388;28;20259;-63
2021/01/22 03:05:02;;;;;;;1.23;0.70;;;;;21.00;97680.00;;;;2071132;28;20221;-61
2021/01/22 03:06:02;;;;;;;1.23;0.80;;;;;21.00;97684.00;;;;2080091;28;20261;-62
2021/01/22 03:07:02;;;;;;;0.70;0.50;;;;;21.00;97679.00;;;;2079443;28;20257;-63
2021/01/22 03:08:08;;;;;;;0.70;0.60;;;;;21.00;97680.00;;;;2071359;28;20685;-62
2021/01/22 03:09:27;;;;;;;0.85;0.70;;;;;21.00;97684.00;;;;2080058;28;20725;-62
2021/01/22 03:10:27;;;;;;;1.00;0.70;;;;;21.00;97692.00;;;;2071827;28;20724;-63
2021/01/22 03:11:29;;;;;;;0.83;0.80;;;;;21.00;97697.00;;;;2063059;28;20238;-63
2021/01/22 03:12:29;;;;;;;0.90;0.80;;;;;21.00;97700.00;;;;2055311;28;20251;-62
2021/01/22 03:13:30;;;;;;;1.03;0.93;;;;;20.90;97704.00;;;;2070927;28;20289;-63
2021/01/22 03:14:30;;;;;;;0.90;0.70;;;;;20.90;97710.00;;;;2071122;28;20213;-62
2021/01/22 03:15:30;;;;;;;0.70;0.50;;;;;20.90;97704.00;;;;2044956;28;20258;-63
2021/01/22 03:16:34;;;;;;;0.90;0.90;;;;;20.90;97698.00;;;;2043543;28;20223;-62
2021/01/22 03:17:35;;;;;;;0.85;0.60;;;;;20.90;97704.00;;;;2047713;28;20223;-62
2021/01/22 03:18:35;;;;;;;0.90;0.70;;;;;20.90;97712.00;;;;2063406;28;20241;-62
2021/01/22 03:19:48;;;;;;;0.50;0.50;;;;;20.90;97714.00;;;;2079703;28;20259;-63
2021/01/22 03:20:48;;;;;;;0.63;0.55;;;;;20.90;97717.00;;;;2083207;28;20299;-63
2021/01/22 03:21:49;;;;;;;0.87;0.60;;;;;20.90;97723.00;;;;2087863;28;20697;-62
2021/01/22 03:22:49;;;;;;;0.70;0.60;;;;;20.90;97725.00;;;;2087886;28;20212;-63
2021/01/22 03:23:49;;;;;;;0.70;0.50;;;;;20.90;97724.00;;;;2087378;28;20214;-63
2021/01/22 03:24:50;;;;;;;1.13;0.73;;;;;20.90;97735.00;;;;2088053;28;20242;-63
2021/01/22 03:25:50;;;;;;;0.80;0.60;;;;;20.90;97731.00;;;;2088165;28;20223;-63
2021/01/22 03:26:50;;;;;;;0.80;0.50;;;;;20.90;97742.00;;;;2088155;28;20209;-63
2021/01/22 03:27:50;;;;;;;0.80;0.60;;;;;20.90;97735.00;;;;2088300;28;20350;-62
2021/01/22 03:28:51;;;;;;;0.70;0.70;;;;;20.90;97737.00;;;;2088020;28;20280;-62
2021/01/22 03:29:51;;;;;;;2.07;0.67;;;;;20.90;97725.00;;;;2087867;28;20211;-63
2021/01/22 03:30:51;;;;;;;0.70;0.50;;;;;20.80;97732.00;;;;2088072;28;20247;-62
2021/01/22 03:31:52;;;;;;;0.60;0.60;;;;;20.90;97747.00;;;;2088111;28;20221;-62
2021/01/22 03:32:52;;;;;;;0.60;0.50;;;;;20.80;97739.00;;;;2088008;28;20229;-63
2021/01/22 03:33:52;;;;;;;0.70;0.53;;;;;20.90;97757.00;;;;2087454;28;20231;-62
2021/01/22 03:34:53;;;;;;;0.60;0.50;;;;;20.80;97752.00;;;;2087912;28;20717;-62
2021/01/22 03:35:53;;;;;;;1.90;0.90;;;;;20.80;97760.00;;;;2088169;28;20216;-63
2021/01/22 03:36:57;;;;;;;1.77;1.00;;;;;20.80;97754.00;;;;2088034;28;20326;-63
2021/01/22 03:37:58;;;;;;;0.65;0.60;;;;;20.80;97754.00;;;;2087703;28;20753;-63
2021/01/22 03:38:58;;;;;;;0.87;0.63;;;;;20.80;97744.00;;;;2088063;28;20219;-63
2021/01/22 03:39:58;;;;;;;2.40;0.60;;;;;20.80;97744.00;;;;2088084;28;20238;-63
2021/01/22 03:40:59;;;;;;;0.80;0.60;;;;;20.80;97750.00;;;;2087848;28;20216;-63
2021/01/22 03:41:59;;;;;;;2.23;0.90;;;;;20.80;97753.00;;;;2088052;28;20208;-63
2021/01/22 03:42:59;;;;;;;0.90;0.67;;;;;20.80;97749.00;;;;2087582;28;20239;-63
2021/01/22 03:44:00;;;;;;;1.10;0.77;;;;;20.80;97750.00;;;;2087823;28;20233;-63
2021/01/22 03:45:00;;;;;;;1.00;0.80;;;;;20.80;97765.00;;;;2088038;28;20269;-63
2021/01/22 03:46:00;;;;;;;2.00;0.90;;;;;20.80;97765.00;;;;2088160;28;20298;-62
2021/01/22 03:47:01;;;;;;;0.73;0.70;;;;;20.80;97760.00;;;;2088001;28;20220;-63
2021/01/22 03:48:02;;;;;;;1.40;0.73;;;;;20.80;97773.00;;;;2087924;28;20703;-62
2021/01/22 03:49:03;;;;;;;0.90;0.75;;;;;20.80;97780.00;;;;2076142;28;20214;-63
2021/01/22 03:50:04;;;;;;;0.80;0.80;;;;;20.80;97781.00;;;;2074163;28;20582;-62
2021/01/22 03:51:04;;;;;;;0.77;0.67;;;;;20.80;97779.00;;;;2085872;28;20656;-63
2021/01/22 03:52:04;;;;;;;0.97;0.87;;;;;20.80;97777.00;;;;2087684;28;20842;-63
2021/01/22 03:53:05;;;;;;;1.30;0.83;;;;;20.80;97795.00;;;;2087228;28;20211;-63
2021/01/22 03:54:05;;;;;;;0.90;0.90;;;;;20.80;97800.00;;;;2086790;28;20217;-62
2021/01/22 03:55:06;;;;;;;0.90;0.80;;;;;20.80;97798.00;;;;2087760;28;20650;-63
2021/01/22 03:56:06;;;;;;;1.10;0.73;;;;;20.80;97802.00;;;;2087956;28;20212;-62
2021/01/22 03:57:07;;;;;;;1.07;0.67;;;;;20.80;97803.00;;;;2087991;28;20255;-62
2021/01/22 03:58:08;;;;;;;0.93;0.90;;;;;20.70;97805.00;;;;2087771;28;20235;-63
2021/01/22 03:59:08;;;;;;;1.45;1.30;;;;;20.80;97809.00;;;;2087847;28;20293;-63
2021/01/22 04:00:09;;;;;;;1.00;0.90;;;;;20.70;97814.00;;;;2087799;28;20202;-62
2021/01/22 04:01:10;;;;;;;0.90;0.70;;;;;20.70;97814.00;;;;2087833;28;20266;-63
2021/01/22 04:02:10;;;;;;;0.93;0.90;;;;;20.70;97811.00;;;;2087625;28;20466;-63
2021/01/22 04:03:10;;;;;;;1.03;0.93;;;;;20.70;97817.00;;;;2087466;28;20204;-63
2021/01/22 04:04:11;;;;;;;1.00;0.87;;;;;20.70;97811.00;;;;2087527;28;20280;-62
2021/01/22 04:05:12;;;;;;;1.00;0.80;;;;;20.70;97803.00;;;;2087718;28;20208;-63
2021/01/22 04:06:12;;;;;;;1.33;0.90;;;;;20.70;97811.00;;;;2079139;28;20216;-63
2021/01/22 04:07:13;;;;;;;1.27;0.80;;;;;20.70;97820.00;;;;2079072;28;20242;-62
2021/01/22 04:08:13;;;;;;;1.07;0.97;;;;;20.70;97816.00;;;;2087685;28;20216;-63
2021/01/22 04:09:13;;;;;;;0.87;0.77;;;;;20.70;97820.00;;;;2086487;28;20363;-63
2021/01/22 04:10:14;;;;;;;0.90;0.80;;;;;20.70;97818.00;;;;2087804;28;20579;-63
2021/01/22 04:11:14;;;;;;;0.90;0.70;;;;;20.70;97828.00;;;;2087770;28;20658;-63
2021/01/22 04:12:15;;;;;;;1.10;0.80;;;;;20.70;97823.00;;;;2087668;28;20236;-63
2021/01/22 04:13:15;;;;;;;1.10;1.00;;;;;20.70;97842.00;;;;2087095;28;20597;-63
2021/01/22 04:14:15;;;;;;;0.77;0.70;;;;;20.70;97840.00;;;;2087686;28;20769;-62
2021/01/22 04:15:16;;;;;;;0.90;0.90;;;;;20.70;97838.00;;;;2087547;28;20227;-62
2021/01/22 04:16:16;;;;;;;0.87;0.73;;;;;20.70;97846.00;;;;2087958;28;20249;-62
2021/01/22 04:17:16;;;;;;;1.10;0.80;;;;;20.70;97853.00;;;;2087735;28;20224;-63
2021/01/22 04:18:17;;;;;;;1.30;1.00;;;;;20.70;97847.00;;;;2087850;28;20213;-62
2021/01/22 04:19:17;;;;;;;0.90;0.90;;;;;20.70;97857.00;;;;2082712;28;20220;-63
2021/01/22 04:20:21;;;;;;;1.03;0.80;;;;;20.60;97858.00;;;;2087490;28;20220;-62
2021/01/22 04:21:21;;;;;;;1.17;0.80;;;;;20.70;97858.00;;;;2083939;28;20699;-62
2021/01/22 04:22:22;;;;;;;0.70;0.70;;;;;20.70;97867.00;;;;2087726;28;20224;-62
2021/01/22 04:23:22;;;;;;;0.87;0.70;;;;;20.70;97862.00;;;;2078187;28;20220;-63
2021/01/22 04:24:22;;;;;;;1.10;0.90;;;;;20.70;97861.00;;;;2078794;28;20245;-62
2021/01/22 04:25:23;;;;;;;1.00;0.80;;;;;20.60;97871.00;;;;2078848;28;20291;-63
2021/01/22 04:26:23;;;;;;;1.00;0.80;;;;;20.60;97856.00;;;;2078902;28;20636;-63
2021/01/22 04:27:23;;;;;;;0.97;0.80;;;;;20.70;97866.00;;;;2087151;28;20610;-62
2021/01/22 04:28:24;;;;;;;0.93;0.77;;;;;20.60;97859.00;;;;2087700;28;20560;-62
2021/01/22 04:29:24;;;;;;;1.10;0.93;;;;;20.70;97864.00;;;;2087635;28;20762;-62
2021/01/22 04:30:25;;;;;;;0.97;0.80;;;;;20.60;97854.00;;;;2087775;28;20251;-62
2021/01/22 04:31:25;;;;;;;0.70;0.70;;;;;20.60;97862.00;;;;2087714;28;20218;-62
2021/01/22 04:32:25;;;;;;;0.70;0.60;;;;;20.60;97860.00;;;;2087731;28;20817;-63
2021/01/22 04:33:26;;;;;;;0.80;0.80;;;;;20.60;97871.00;;;;2087287;28;20580;-62
2021/01/22 04:34:26;;;;;;;0.90;0.77;;;;;20.60;97877.00;;;;2087436;28;20714;-62
2021/01/22 04:35:26;;;;;;;0.83;0.80;;;;;20.60;97874.00;;;;2087131;28;20238;-62
2021/01/22 04:36:27;;;;;;;0.90;0.90;;;;;20.60;97860.00;;;;2087663;28;20215;-62
2021/01/22 04:37:27;;;;;;;0.90;0.90;;;;;20.60;97871.00;;;;2087604;28;20266;-62
2021/01/22 04:38:27;;;;;;;0.90;0.90;;;;;20.60;97869.00;;;;2087325;28;20224;-62
2021/01/22 04:39:28;;;;;;;1.00;0.70;;;;;20.60;97866.00;;;;2087429;28;20266;-62
2021/01/22 04:40:28;;;;;;;1.00;0.90;;;;;20.60;97871.00;;;;2086694;28;20578;-62
2021/01/22 04:41:29;;;;;;;1.00;0.80;;;;;20.60;97873.00;;;;2087169;28;20242;-62
2021/01/22 04:42:30;;;;;;;0.80;0.75;;;;;20.60;97868.00;;;;2077957;28;20212;-63
2021/01/22 04:43:30;;;;;;;0.97;0.93;;;;;20.60;97877.00;;;;2069844;28;20240;-62
2021/01/22 04:44:30;;;;;;;0.80;0.80;;;;;20.60;97873.00;;;;2078173;28;20213;-62
2021/01/22 04:45:31;;;;;;;1.30;1.00;;;;;20.60;97876.00;;;;2070140;28;20261;-62
2021/01/22 04:46:34;;;;;;;1.53;0.97;;;;;20.60;97876.00;;;;2078234;28;20217;-62
2021/01/22 04:47:35;;;;;;;1.30;0.80;;;;;20.50;97881.00;;;;2086877;28;20219;-62
2021/01/22 04:48:35;;;;;;;1.40;0.63;;;;;20.50;97874.00;;;;2078039;28;20260;-63
2021/01/22 04:49:36;;;;;;;0.93;0.83;;;;;20.50;97880.00;;;;2069946;28;20566;-63
2021/01/22 04:50:37;;;;;;;1.17;0.90;;;;;20.50;97876.00;;;;2077840;28;20618;-63
2021/01/22 04:51:37;;;;;;;0.70;0.60;;;;;20.60;97873.00;;;;2061898;28;20226;-63
2021/01/22 04:52:37;;;;;;;0.90;0.80;;;;;20.50;97881.00;;;;2069871;28;20457;-62
2021/01/22 04:53:38;;;;;;;0.70;0.60;;;;;20.50;97880.00;;;;2086371;28;20270;-63
2021/01/22 04:54:41;;;;;;;0.90;0.90;;;;;20.50;97883.00;;;;2060800;28;20871;-63
2021/01/22 04:55:43;;;;;;;0.90;0.80;;;;;20.50;97888.00;;;;2062621;28;20214;-63
2021/01/22 04:56:45;;;;;;;0.90;0.90;;;;;20.50;97889.00;;;;2070022;28;20227;-62
2021/01/22 04:57:45;;;;;;;1.00;0.90;;;;;20.50;97887.00;;;;2070111;28;20703;-62
2021/01/22 04:58:46;;;;;;;0.90;0.80;;;;;20.50;97888.00;;;;2078359;28;20221;-62
2021/01/22 04:59:50;;;;;;;1.20;1.10;;;;;20.50;97887.00;;;;2078325;28;20321;-62
2021/01/22 05:00:50;;;;;;;1.17;1.05;;;;;20.50;97882.00;;;;2071085;28;20213;-62
2021/01/22 05:01:51;;;;;;;0.93;0.90;;;;;20.50;97886.00;;;;2078720;28;20208;-62
2021/01/22 05:02:55;;;;;;;1.10;0.90;;;;;20.50;97889.00;;;;2078624;28;20694;-62
2021/01/22 05:03:58;;;;;;;1.20;1.00;;;;;20.50;97888.00;;;;2078979;28;20244;-63
2021/01/22 05:04:59;;;;;;;0.70;0.70;;;;;20.50;97893.00;;;;2087239;28;20586;-62
2021/01/22 05:05:59;;;;;;;1.20;1.10;;;;;20.50;97896.00;;;;2087541;28;20221;-63
2021/01/22 05:07:00;;;;;;;1.10;1.00;;;;;20.50;97889.00;;;;2087598;28;20215;-62